Time;durP1;ratioP1;P1;durP2;ratioP2;P2;SDS_P1;SDS_P2;PMS_P1;PMS_P2;Temp;Humidity;BMP_temperature;BMP_pressure;BME280_temperature;BME280_humidity;BME280_pressure;Samples;Min_cycle;Max_cycle;Signal;HPM_P1;HPM_P2
2023/11/14 00:00:26;;;;;;;5.20;0.90;;;12.10;1.00;;;;;;5012214;28;20389;-70
2023/11/14 00:02:52;;;;;;;4.47;1.50;;;12.00;1.00;;;;;;5015554;28;20403;-70
2023/11/14 00:05:17;;;;;;;6.00;1.30;;;12.00;1.00;;;;;;5020581;28;20404;-70
2023/11/14 00:07:43;;;;;;;4.90;0.80;;;11.90;1.00;;;;;;5031198;28;20940;-70
2023/11/14 00:10:09;;;;;;;10.83;1.60;;;11.90;1.00;;;;;;5031981;28;20434;-71
2023/11/14 00:12:36;;;;;;;8.68;1.00;;;12.00;1.00;;;;;;5031080;28;20470;-70
2023/11/14 00:15:02;;;;;;;4.45;1.05;;;11.90;1.00;;;;;;5011967;28;20401;-70
2023/11/14 00:17:28;;;;;;;8.70;1.30;;;12.00;1.00;;;;;;5010899;28;20408;-70
2023/11/14 00:19:53;;;;;;;4.35;1.00;;;12.00;1.00;;;;;;5017754;28;20508;-70
2023/11/14 00:22:19;;;;;;;5.30;1.00;;;12.00;1.00;;;;;;5030839;28;20892;-70
2023/11/14 00:24:45;;;;;;;9.68;1.10;;;12.00;1.00;;;;;;5031242;28;20840;-70
2023/11/14 00:27:11;;;;;;;7.30;1.20;;;12.00;1.00;;;;;;5031830;28;20395;-70
2023/11/14 00:29:37;;;;;;;4.75;0.73;;;12.00;1.00;;;;;;5030628;28;20419;-70
2023/11/14 00:32:03;;;;;;;7.63;1.17;;;12.00;1.00;;;;;;5031583;28;20453;-70
2023/11/14 00:34:29;;;;;;;4.30;1.00;;;12.00;1.00;;;;;;5030586;28;20390;-70
2023/11/14 00:36:55;;;;;;;6.40;0.90;;;12.00;1.00;;;;;;5030224;28;20399;-70
2023/11/14 00:39:20;;;;;;;5.00;0.50;;;12.00;1.00;;;;;;5031232;28;20734;-70
2023/11/14 00:41:52;;;;;;;8.68;1.13;;;11.90;1.00;;;;;;5031076;28;20391;-70
2023/11/14 00:44:18;;;;;;;4.00;0.60;;;11.90;1.00;;;;;;5030849;28;20454;-70
2023/11/14 00:46:43;;;;;;;11.20;1.10;;;11.80;1.00;;;;;;5031370;28;20904;-70
2023/11/14 00:49:09;;;;;;;4.30;1.02;;;11.70;1.00;;;;;;5026044;28;20405;-70
2023/11/14 00:51:34;;;;;;;12.43;1.33;;;11.60;1.00;;;;;;5011307;28;20393;-70
2023/11/14 00:54:00;;;;;;;9.60;0.93;;;11.60;1.00;;;;;;5011253;28;20396;-70
2023/11/14 00:56:25;;;;;;;5.97;1.13;;;11.70;1.00;;;;;;5019683;28;20399;-69
2023/11/14 00:58:52;;;;;;;5.93;0.93;;;11.70;1.00;;;;;;5028606;28;20901;-69
2023/11/14 01:01:19;;;;;;;5.47;1.48;;;11.70;1.00;;;;;;5008650;28;20392;-70
2023/11/14 01:03:44;;;;;;;9.68;1.27;;;11.60;1.00;;;;;;5011310;28;20385;-70
2023/11/14 01:06:10;;;;;;;6.60;1.10;;;11.60;1.00;;;;;;5011678;28;20451;-70
2023/11/14 01:08:36;;;;;;;9.23;1.13;;;11.60;1.00;;;;;;5010089;28;20867;-70
2023/11/14 01:11:01;;;;;;;7.00;1.17;;;11.60;1.00;;;;;;5017863;28;20419;-70
2023/11/14 01:13:27;;;;;;;5.50;0.70;;;11.50;1.00;;;;;;5030432;28;20396;-70
2023/11/14 01:15:52;;;;;;;4.50;0.70;;;11.40;1.00;;;;;;5029105;28;20403;-70
2023/11/14 01:18:18;;;;;;;11.25;0.98;;;11.50;1.00;;;;;;5030219;28;20443;-70
2023/11/14 01:20:44;;;;;;;9.97;1.20;;;11.40;1.00;;;;;;5031146;28;20396;-70
2023/11/14 01:23:09;;;;;;;10.30;1.33;;;11.40;1.00;;;;;;5030432;28;20448;-70
2023/11/14 01:25:35;;;;;;;6.70;1.20;;;11.50;1.00;;;;;;5030315;28;20396;-70
2023/11/14 01:28:00;;;;;;;4.33;0.90;;;11.50;1.00;;;;;;5030386;28;20388;-70
2023/11/14 01:30:26;;;;;;;8.00;1.60;;;11.30;1.00;;;;;;5029606;28;20897;-70
2023/11/14 01:32:51;;;;;;;3.80;0.68;;;11.40;1.00;;;;;;5030278;28;20399;-70
2023/11/14 01:35:17;;;;;;;4.43;0.60;;;11.30;1.00;;;;;;5030592;28;20416;-70
2023/11/14 01:37:42;;;;;;;4.10;0.50;;;11.20;1.00;;;;;;5030560;28;20399;-70
2023/11/14 01:40:08;;;;;;;6.40;0.70;;;11.20;1.00;;;;;;5030010;28;20910;-70
2023/11/14 01:42:34;;;;;;;5.37;1.10;;;11.30;1.00;;;;;;5030064;28;20502;-70
2023/11/14 01:44:59;;;;;;;10.88;1.17;;;11.30;1.00;;;;;;5029723;28;20489;-70
2023/11/14 01:47:25;;;;;;;6.37;0.70;;;11.20;1.00;;;;;;5030218;28;20876;-70
2023/11/14 01:49:52;;;;;;;5.15;0.60;;;11.30;1.00;;;;;;5030120;28;20426;-70
2023/11/14 01:52:18;;;;;;;5.57;1.10;;;11.30;1.00;;;;;;5029887;28;20403;-70
2023/11/14 01:54:43;;;;;;;4.82;1.00;;;11.20;1.00;;;;;;5030637;28;20451;-70
2023/11/14 01:57:11;;;;;;;6.60;0.77;;;11.20;1.00;;;;;;5029368;28;20812;-70
2023/11/14 01:59:37;;;;;;;5.05;1.10;;;11.20;1.00;;;;;;5028104;28;20414;-70
2023/11/14 02:02:04;;;;;;;6.40;0.80;;;11.10;1.00;;;;;;5028566;28;20399;-70
2023/11/14 02:04:32;;;;;;;11.88;1.80;;;11.10;1.00;;;;;;5028644;28;20391;-70
2023/11/14 02:06:58;;;;;;;7.57;1.02;;;11.10;1.00;;;;;;5028041;28;20761;-70
2023/11/14 02:09:26;;;;;;;5.07;1.20;;;11.00;1.00;;;;;;5028873;28;20502;-69
2023/11/14 02:11:52;;;;;;;4.25;0.73;;;11.00;1.00;;;;;;5029924;28;20429;-70
2023/11/14 02:14:17;;;;;;;3.60;0.50;;;11.10;1.00;;;;;;5028585;28;20457;-70
2023/11/14 02:16:44;;;;;;;9.27;1.00;;;11.10;1.00;;;;;;5030167;28;20395;-69
2023/11/14 02:19:10;;;;;;;6.80;0.60;;;11.10;1.00;;;;;;5021388;28;20424;-69
2023/11/14 02:21:35;;;;;;;5.70;0.80;;;11.10;1.00;;;;;;5029402;28;20445;-69
2023/11/14 02:24:04;;;;;;;5.32;1.00;;;11.20;1.00;;;;;;5029773;28;20391;-69
2023/11/14 02:26:29;;;;;;;5.43;0.88;;;11.10;1.00;;;;;;5029602;28;20383;-69
2023/11/14 02:28:59;;;;;;;5.30;0.67;;;11.10;1.00;;;;;;5028988;28;20399;-70
2023/11/14 02:31:25;;;;;;;3.90;0.60;;;11.20;1.00;;;;;;5028915;28;20455;-70
2023/11/14 02:33:50;;;;;;;5.28;0.73;;;11.20;1.00;;;;;;5026385;28;20928;-70
2023/11/14 02:36:16;;;;;;;4.73;0.83;;;11.20;1.00;;;;;;5029417;28;20418;-70
2023/11/14 02:38:41;;;;;;;11.00;1.47;;;11.00;1.00;;;;;;5029662;28;20745;-70
2023/11/14 02:41:07;;;;;;;5.50;1.50;;;11.10;1.00;;;;;;5032164;28;20769;-70
2023/11/14 02:43:32;;;;;;;4.00;0.70;;;11.10;1.00;;;;;;5033144;28;20383;-70
2023/11/14 02:45:58;;;;;;;4.70;0.70;;;11.20;1.00;;;;;;5033040;28;20415;-70
2023/11/14 02:48:23;;;;;;;5.03;1.35;;;11.20;1.00;;;;;;5033146;28;20521;-69
2023/11/14 02:50:54;;;;;;;3.85;0.70;;;11.20;1.00;;;;;;5032886;28;20465;-69
2023/11/14 02:53:21;;;;;;;13.07;1.50;;;11.30;1.00;;;;;;5032992;28;20419;-69
2023/11/14 02:55:47;;;;;;;11.15;1.30;;;11.30;1.00;;;;;;5033054;28;20395;-69
2023/11/14 02:58:13;;;;;;;4.53;0.90;;;11.40;1.00;;;;;;5032714;28;20420;-69
2023/11/14 03:00:43;;;;;;;5.60;1.00;;;11.30;1.00;;;;;;5033130;28;20881;-69
2023/11/14 03:03:12;;;;;;;4.00;0.80;;;11.30;1.00;;;;;;5033119;28;20478;-69
2023/11/14 03:05:38;;;;;;;6.40;1.70;;;11.30;1.00;;;;;;5033203;28;20754;-70
2023/11/14 03:08:04;;;;;;;9.82;0.90;;;11.40;1.00;;;;;;5032962;28;20387;-69
2023/11/14 03:10:32;;;;;;;6.07;0.98;;;11.40;1.00;;;;;;5023573;28;20419;-69
2023/11/14 03:12:59;;;;;;;4.82;0.80;;;11.30;1.00;;;;;;5032609;28;20916;-70
2023/11/14 03:15:28;;;;;;;5.80;0.70;;;11.30;1.00;;;;;;5021665;28;20475;-70
2023/11/14 03:17:55;;;;;;;8.80;1.00;;;11.40;1.00;;;;;;5013108;28;20411;-69
2023/11/14 03:20:20;;;;;;;4.20;0.98;;;11.30;1.00;;;;;;5013357;28;20436;-69
2023/11/14 03:22:46;;;;;;;4.65;1.17;;;11.40;1.00;;;;;;5029398;28;20814;-70
2023/11/14 03:25:13;;;;;;;8.63;1.23;;;11.40;1.00;;;;;;5032735;28;20453;-70
2023/11/14 03:27:39;;;;;;;5.50;0.90;;;11.40;1.00;;;;;;5031778;28;20398;-70
2023/11/14 03:30:07;;;;;;;4.10;0.70;;;11.40;1.00;;;;;;5017820;28;20479;-70
2023/11/14 03:32:32;;;;;;;5.60;0.90;;;11.40;1.00;;;;;;5032439;28;20389;-70
2023/11/14 03:34:58;;;;;;;5.13;1.13;;;11.40;1.00;;;;;;5032512;28;20488;-70
2023/11/14 03:37:24;;;;;;;14.80;1.50;;;11.40;1.00;;;;;;5032960;28;20383;-70
2023/11/14 03:39:49;;;;;;;6.80;1.10;;;11.50;1.00;;;;;;5027040;28;20438;-70
2023/11/14 03:42:15;;;;;;;5.40;1.40;;;11.50;1.00;;;;;;5028362;28;20459;-70
2023/11/14 03:44:40;;;;;;;6.10;1.10;;;11.50;1.00;;;;;;5031763;28;20413;-70
2023/11/14 03:47:06;;;;;;;5.20;1.20;;;11.50;1.00;;;;;;5032660;28;20456;-70
2023/11/14 03:49:31;;;;;;;7.40;1.02;;;11.50;1.00;;;;;;5032217;28;20492;-70
2023/11/14 03:51:57;;;;;;;6.80;1.20;;;11.40;1.00;;;;;;5030858;28;20403;-70
2023/11/14 03:54:23;;;;;;;6.30;1.03;;;11.40;1.00;;;;;;5031930;28;20800;-70
2023/11/14 03:56:48;;;;;;;10.40;1.10;;;11.40;1.00;;;;;;5030577;28;20411;-70
2023/11/14 03:59:14;;;;;;;5.40;0.97;;;11.40;1.00;;;;;;5028149;28;20403;-70
2023/11/14 04:01:39;;;;;;;5.65;1.00;;;11.30;1.00;;;;;;5032353;28;20461;-70
2023/11/14 04:04:05;;;;;;;5.57;1.13;;;11.30;1.00;;;;;;5031784;28;20453;-70
2023/11/14 04:06:30;;;;;;;9.00;1.40;;;11.30;1.00;;;;;;5031669;28;20399;-70
2023/11/14 04:08:56;;;;;;;6.80;1.40;;;11.40;1.00;;;;;;5031875;28;20399;-70
2023/11/14 04:11:22;;;;;;;9.65;1.20;;;11.30;1.00;;;;;;5022675;28;20423;-70
2023/11/14 04:13:48;;;;;;;6.37;1.47;;;11.30;1.00;;;;;;5023984;28;20881;-70
2023/11/14 04:16:14;;;;;;;5.60;1.05;;;11.10;1.00;;;;;;5031538;28;20944;-70
2023/11/14 04:18:40;;;;;;;12.00;1.23;;;11.10;1.00;;;;;;5031173;28;20434;-70
2023/11/14 04:21:06;;;;;;;5.10;0.80;;;11.10;1.00;;;;;;5031612;28;20730;-70
2023/11/14 04:23:31;;;;;;;8.10;0.87;;;11.10;1.00;;;;;;5030789;28;20402;-69
2023/11/14 04:25:57;;;;;;;6.80;0.90;;;11.10;1.00;;;;;;5031388;28;20391;-69
2023/11/14 04:28:22;;;;;;;9.25;1.10;;;11.20;1.00;;;;;;5031569;28;20388;-70
2023/11/14 04:30:48;;;;;;;5.97;0.77;;;11.20;1.00;;;;;;5029051;28;20427;-70
2023/11/14 04:33:13;;;;;;;5.90;1.50;;;11.20;1.00;;;;;;5031577;28;20402;-70
2023/11/14 04:35:39;;;;;;;5.90;1.30;;;11.30;1.00;;;;;;5031344;28;20750;-70
2023/11/14 04:38:04;;;;;;;5.00;0.70;;;11.30;1.00;;;;;;5031002;28;20864;-70
2023/11/14 04:40:30;;;;;;;6.07;0.70;;;11.40;1.00;;;;;;5028173;28;20407;-70
2023/11/14 04:42:55;;;;;;;4.00;0.60;;;11.50;1.00;;;;;;5029148;28;20403;-70
2023/11/14 04:45:21;;;;;;;4.32;0.85;;;11.50;1.00;;;;;;5030483;28;20391;-70
2023/11/14 04:47:47;;;;;;;5.10;0.90;;;11.40;1.00;;;;;;5029497;28;20425;-70
2023/11/14 04:50:13;;;;;;;9.30;1.10;;;11.40;1.00;;;;;;5030780;28;20419;-70
2023/11/14 04:52:38;;;;;;;6.40;1.00;;;11.50;1.00;;;;;;5029839;28;20409;-70
2023/11/14 04:55:04;;;;;;;4.80;0.50;;;11.40;1.00;;;;;;5030113;28;20395;-70
2023/11/14 04:57:31;;;;;;;5.25;0.85;;;11.40;1.00;;;;;;5027250;28;20484;-70
2023/11/14 04:59:56;;;;;;;7.05;0.90;;;11.40;1.00;;;;;;5028636;28;20952;-70
2023/11/14 05:02:23;;;;;;;6.63;1.00;;;11.50;1.00;;;;;;5029553;28;20474;-70
2023/11/14 05:04:49;;;;;;;5.40;1.00;;;11.40;1.00;;;;;;5025462;28;20410;-70
2023/11/14 05:07:14;;;;;;;5.87;1.00;;;11.50;1.00;;;;;;5027503;28;20403;-70
2023/11/14 05:09:41;;;;;;;9.77;0.70;;;11.50;1.00;;;;;;5028598;28;21211;-70
2023/11/14 05:12:06;;;;;;;6.50;0.90;;;11.40;1.00;;;;;;5022710;28;20414;-70
2023/11/14 05:14:32;;;;;;;4.30;0.93;;;11.40;1.00;;;;;;5029482;28;20399;-70
2023/11/14 05:16:57;;;;;;;5.20;1.10;;;11.40;1.00;;;;;;5030228;28;20395;-70
2023/11/14 05:19:23;;;;;;;4.80;0.80;;;11.40;1.00;;;;;;5030124;28;20901;-70
2023/11/14 05:21:50;;;;;;;4.10;0.80;;;11.40;1.00;;;;;;5028473;28;20462;-70
2023/11/14 05:24:16;;;;;;;8.20;0.80;;;11.40;1.00;;;;;;5029926;28;20383;-70
2023/11/14 05:26:41;;;;;;;4.40;0.80;;;11.40;1.00;;;;;;5030202;28;20478;-70
2023/11/14 05:29:07;;;;;;;4.75;1.05;;;11.40;1.00;;;;;;5029660;28;20394;-70
2023/11/14 05:31:36;;;;;;;7.10;1.53;;;11.40;1.00;;;;;;5029179;28;20457;-70
2023/11/14 05:34:02;;;;;;;6.35;1.08;;;11.40;1.00;;;;;;5027635;28;20773;-70
2023/11/14 05:36:28;;;;;;;7.10;1.35;;;11.50;1.00;;;;;;5028516;28;20502;-70
2023/11/14 05:38:53;;;;;;;4.10;0.80;;;11.40;1.00;;;;;;5028995;28;20477;-70
2023/11/14 05:41:19;;;;;;;3.70;0.60;;;11.30;1.00;;;;;;5029913;28;20407;-70
2023/11/14 05:43:45;;;;;;;4.40;0.90;;;11.30;1.00;;;;;;5029643;28;20410;-70
2023/11/14 05:46:11;;;;;;;4.60;0.90;;;11.30;1.00;;;;;;5017917;28;20805;-70
2023/11/14 05:48:38;;;;;;;3.90;0.70;;;11.40;1.00;;;;;;5021739;28;21002;-70
2023/11/14 05:51:04;;;;;;;7.20;1.38;;;11.30;1.00;;;;;;5011497;28;20425;-70
2023/11/14 05:53:30;;;;;;;8.27;1.30;;;11.20;1.00;;;;;;5025181;28;20887;-70
2023/11/14 05:55:56;;;;;;;3.92;0.60;;;11.20;1.00;;;;;;5029828;28;20727;-70
2023/11/14 05:58:22;;;;;;;9.30;1.10;;;11.30;1.00;;;;;;5029659;28;20405;-69
2023/11/14 06:00:48;;;;;;;6.30;0.90;;;11.30;1.00;;;;;;5027941;28;20927;-70
2023/11/14 06:03:15;;;;;;;7.40;1.00;;;11.40;1.00;;;;;;5026226;28;20387;-70
2023/11/14 06:05:41;;;;;;;7.00;1.10;;;11.40;1.00;;;;;;5014792;28;20398;-70
2023/11/14 06:08:07;;;;;;;4.87;0.60;;;11.40;1.00;;;;;;5010264;28;20404;-70
2023/11/14 06:10:33;;;;;;;4.32;0.93;;;11.40;1.00;;;;;;5022202;28;20982;-70
2023/11/14 06:12:58;;;;;;;6.30;1.20;;;11.50;1.00;;;;;;5016332;28;20432;-70
2023/11/14 06:15:24;;;;;;;4.90;0.70;;;11.40;1.00;;;;;;5028605;28;20399;-70
2023/11/14 06:17:50;;;;;;;9.40;1.08;;;11.40;1.00;;;;;;5029949;28;20445;-70
2023/11/14 06:20:17;;;;;;;5.55;0.90;;;11.40;1.00;;;;;;5029537;28;20713;-69
2023/11/14 06:22:42;;;;;;;4.18;0.70;;;11.50;1.00;;;;;;5030035;28;20403;-69
2023/11/14 06:25:08;;;;;;;4.68;0.85;;;11.60;1.00;;;;;;5028692;28;20399;-70
2023/11/14 06:27:34;;;;;;;8.77;0.95;;;11.60;1.00;;;;;;5028913;28;20887;-70
2023/11/14 06:29:59;;;;;;;6.25;0.88;;;11.60;1.00;;;;;;5028911;28;20448;-70
2023/11/14 06:32:25;;;;;;;8.30;1.20;;;11.60;1.00;;;;;;5028926;28;20406;-70
2023/11/14 06:34:52;;;;;;;4.50;1.00;;;11.70;1.00;;;;;;5030920;28;20414;-69
2023/11/14 06:37:18;;;;;;;3.90;0.50;;;11.70;1.00;;;;;;5029872;28;20396;-69
2023/11/14 06:39:44;;;;;;;6.00;1.05;;;11.60;1.00;;;;;;5027850;28;20395;-71
2023/11/14 06:42:09;;;;;;;8.20;1.30;;;11.70;1.00;;;;;;5028854;28;20391;-71
2023/11/14 06:44:35;;;;;;;6.10;1.08;;;11.60;1.00;;;;;;5029499;28;20399;-70
2023/11/14 06:47:01;;;;;;;4.83;0.70;;;11.60;1.00;;;;;;5028247;28;20433;-70
2023/11/14 06:49:26;;;;;;;4.90;1.50;;;11.60;1.00;;;;;;5028136;28;20418;-70
2023/11/14 06:51:52;;;;;;;6.63;0.90;;;11.60;1.00;;;;;;5028325;28;20829;-70
2023/11/14 06:54:17;;;;;;;5.07;1.00;;;11.60;1.00;;;;;;5028142;28;20469;-70
2023/11/14 06:56:43;;;;;;;6.70;0.90;;;11.70;1.00;;;;;;5028683;28;20384;-71
2023/11/14 06:59:09;;;;;;;4.80;0.73;;;11.80;1.00;;;;;;5028328;28;20398;-70
2023/11/14 07:01:35;;;;;;;6.10;0.90;;;11.80;1.00;;;;;;5029231;28;21290;-70
2023/11/14 07:04:02;;;;;;;7.28;1.33;;;11.90;1.00;;;;;;5026912;28;20407;-70
2023/11/14 07:06:28;;;;;;;4.72;0.90;;;11.90;1.00;;;;;;5025413;28;20433;-68
2023/11/14 07:08:55;;;;;;;5.10;1.00;;;12.00;1.00;;;;;;5015688;28;20843;-70
2023/11/14 07:11:21;;;;;;;7.57;1.20;;;12.00;1.00;;;;;;5025688;28;20416;-69
2023/11/14 07:13:48;;;;;;;4.93;0.90;;;11.90;1.00;;;;;;5009540;28;20914;-69
2023/11/14 07:16:13;;;;;;;6.10;0.90;;;12.00;1.00;;;;;;5018104;28;20391;-69
2023/11/14 07:18:39;;;;;;;6.33;1.10;;;12.10;1.00;;;;;;5028479;28;20415;-69
2023/11/14 07:21:05;;;;;;;6.70;1.15;;;12.10;1.00;;;;;;5029117;28;20391;-70
2023/11/14 07:23:31;;;;;;;6.45;1.33;;;12.10;1.00;;;;;;5027800;28;20398;-69
2023/11/14 07:25:56;;;;;;;4.70;0.60;;;12.10;1.00;;;;;;5011796;28;20447;-69
2023/11/14 07:28:22;;;;;;;4.67;1.17;;;12.10;1.00;;;;;;5012262;28;20392;-69
2023/11/14 07:30:48;;;;;;;5.00;0.80;;;12.20;1.00;;;;;;5012663;28;20954;-70
2023/11/14 07:33:15;;;;;;;4.83;0.90;;;12.20;1.00;;;;;;5013748;28;20681;-70
2023/11/14 07:35:40;;;;;;;5.78;1.00;;;12.30;1.00;;;;;;5013094;28;20401;-70
2023/11/14 07:38:06;;;;;;;6.70;0.83;;;12.50;1.00;;;;;;5012551;28;20443;-70
2023/11/14 07:40:32;;;;;;;4.90;1.10;;;12.60;1.00;;;;;;5012453;28;20871;-70
2023/11/14 07:43:03;;;;;;;4.65;1.00;;;12.60;1.00;;;;;;5030446;28;20481;-70
2023/11/14 07:45:29;;;;;;;6.05;1.00;;;12.50;1.00;;;;;;5032373;28;20402;-70
2023/11/14 07:47:55;;;;;;;4.80;0.80;;;12.40;1.00;;;;;;5032392;28;20476;-69
2023/11/14 07:50:20;;;;;;;5.90;0.90;;;12.20;1.00;;;;;;5032628;28;20896;-69
2023/11/14 07:52:46;;;;;;;4.63;0.98;;;12.10;1.00;;;;;;5031963;28;21240;-69
2023/11/14 07:55:12;;;;;;;4.40;0.90;;;12.00;1.00;;;;;;5032532;28;20438;-70
2023/11/14 07:57:38;;;;;;;5.97;1.05;;;11.80;1.00;;;;;;5032091;28;20414;-69
2023/11/14 08:00:08;;;;;;;5.00;1.40;;;11.80;1.00;;;;;;5032178;28;20885;-69
2023/11/14 08:02:33;;;;;;;7.90;1.50;;;11.80;1.00;;;;;;5031900;28;20405;-69
2023/11/14 08:04:59;;;;;;;8.55;1.08;;;11.80;1.00;;;;;;5032250;28;20399;-69
2023/11/14 08:07:24;;;;;;;9.30;1.10;;;11.80;1.00;;;;;;5031927;28;20383;-69
2023/11/14 08:09:50;;;;;;;4.90;0.93;;;11.90;1.00;;;;;;5031330;28;20419;-69
2023/11/14 08:12:16;;;;;;;5.10;1.00;;;11.90;1.00;;;;;;5031993;28;20400;-69
2023/11/14 08:14:41;;;;;;;6.55;1.10;;;12.00;1.00;;;;;;5032388;28;20399;-69
2023/11/14 08:17:07;;;;;;;4.40;0.70;;;12.10;1.00;;;;;;5014406;28;20403;-70
2023/11/14 08:19:33;;;;;;;6.13;1.10;;;12.30;1.00;;;;;;5011905;28;20407;-70
2023/11/14 08:22:04;;;;;;;4.37;0.80;;;12.30;1.00;;;;;;5011668;28;20408;-70
2023/11/14 08:24:30;;;;;;;8.10;1.50;;;12.20;1.00;;;;;;5011702;28;20429;-70
2023/11/14 08:26:56;;;;;;;8.70;1.38;;;12.40;1.00;;;;;;5028443;28;20461;-70
2023/11/14 08:29:23;;;;;;;7.90;0.80;;;12.50;1.00;;;;;;5031423;28;20865;-70
2023/11/14 08:31:49;;;;;;;8.30;1.10;;;12.70;1.00;;;;;;5031892;28;20435;-70
2023/11/14 08:34:15;;;;;;;7.18;1.27;;;12.80;1.00;;;;;;5032227;28;20430;-70
2023/11/14 08:36:41;;;;;;;5.60;0.93;;;12.90;1.00;;;;;;5031570;28;20391;-70
2023/11/14 08:39:09;;;;;;;7.00;0.90;;;13.00;1.00;;;;;;5030478;28;20441;-70
2023/11/14 08:41:35;;;;;;;5.55;1.30;;;12.90;1.00;;;;;;5031423;28;20391;-70
2023/11/14 08:44:01;;;;;;;5.10;0.90;;;12.90;1.00;;;;;;5031171;28;20391;-70
2023/11/14 08:46:27;;;;;;;4.60;0.60;;;12.90;1.00;;;;;;5030976;28;20830;-70
2023/11/14 08:48:52;;;;;;;5.20;0.70;;;12.90;1.00;;;;;;5031243;28;20393;-70
2023/11/14 08:51:18;;;;;;;5.77;0.90;;;12.90;1.00;;;;;;5030705;28;20447;-70
2023/11/14 08:53:43;;;;;;;4.72;0.50;;;12.90;1.00;;;;;;5031544;28;20387;-70
2023/11/14 08:56:11;;;;;;;5.85;0.80;;;13.00;1.00;;;;;;5031233;28;21290;-71
2023/11/14 08:58:37;;;;;;;4.00;0.60;;;13.00;1.00;;;;;;5031478;28;20447;-70
2023/11/14 09:01:03;;;;;;;4.70;0.70;;;12.90;1.00;;;;;;5030931;28;20433;-70
2023/11/14 09:03:29;;;;;;;5.22;0.93;;;13.00;1.00;;;;;;5031158;28;20403;-70
2023/11/14 09:05:55;;;;;;;5.90;0.90;;;13.10;1.00;;;;;;5030760;28;20402;-70
2023/11/14 09:08:20;;;;;;;4.43;0.55;;;13.20;1.00;;;;;;5030747;28;20418;-71
2023/11/14 09:10:46;;;;;;;4.40;0.60;;;13.10;1.00;;;;;;5030688;28;21124;-70
2023/11/14 09:13:12;;;;;;;5.50;0.63;;;13.10;1.00;;;;;;5031167;28;20388;-70
2023/11/14 09:15:39;;;;;;;4.05;0.50;;;13.00;1.00;;;;;;5030589;28;20444;-70
2023/11/14 09:18:04;;;;;;;4.83;0.77;;;13.00;1.00;;;;;;5030589;28;20896;-70
2023/11/14 09:20:30;;;;;;;4.32;0.68;;;12.80;1.00;;;;;;5030185;28;20402;-70
2023/11/14 09:22:56;;;;;;;4.67;0.90;;;12.80;1.00;;;;;;5030398;28;20391;-70
2023/11/14 09:25:22;;;;;;;5.10;0.75;;;12.80;1.00;;;;;;5030410;28;20386;-70
2023/11/14 09:27:48;;;;;;;4.60;0.70;;;12.80;1.00;;;;;;5029016;28;20773;-70
2023/11/14 09:30:14;;;;;;;4.00;0.60;;;12.60;1.00;;;;;;5031035;28;20456;-70
2023/11/14 09:32:40;;;;;;;4.22;0.70;;;12.60;1.00;;;;;;5030632;28;20403;-70
2023/11/14 09:35:06;;;;;;;4.97;0.70;;;12.70;1.00;;;;;;5030371;28;20391;-70
2023/11/14 09:37:31;;;;;;;4.60;0.70;;;12.80;1.00;;;;;;5030344;28;20899;-70
2023/11/14 09:39:57;;;;;;;4.10;0.60;;;13.00;1.00;;;;;;5030173;28;20406;-71
2023/11/14 09:42:23;;;;;;;4.47;0.90;;;13.00;1.00;;;;;;5030364;28;20402;-71
2023/11/14 09:44:49;;;;;;;3.95;0.47;;;12.90;1.00;;;;;;5030354;28;20445;-71
2023/11/14 09:47:15;;;;;;;5.13;0.70;;;12.70;1.00;;;;;;5031063;28;20394;-71
2023/11/14 09:49:42;;;;;;;4.30;0.80;;;12.50;1.00;;;;;;5030698;28;20431;-70
2023/11/14 09:52:10;;;;;;;5.70;0.70;;;12.50;1.00;;;;;;5029892;28;20423;-70
2023/11/14 09:54:37;;;;;;;5.70;0.70;;;12.50;1.00;;;;;;5030042;28;20404;-71
2023/11/14 09:57:04;;;;;;;5.30;0.50;;;12.50;1.00;;;;;;5029963;28;20448;-71
2023/11/14 09:59:34;;;;;;;4.20;0.50;;;12.50;1.00;;;;;;5029737;28;20907;-71
2023/11/14 10:01:59;;;;;;;6.00;0.80;;;12.50;1.00;;;;;;5030258;28;20402;-71
2023/11/14 10:04:25;;;;;;;4.10;0.60;;;12.60;1.00;;;;;;5029585;28;20489;-70
2023/11/14 10:06:51;;;;;;;4.80;0.70;;;12.50;1.00;;;;;;5029916;28;20391;-70
2023/11/14 10:09:19;;;;;;;4.50;0.93;;;12.60;1.00;;;;;;5029943;28;20899;-70
2023/11/14 10:11:46;;;;;;;6.53;0.80;;;12.60;1.00;;;;;;5030135;28;20903;-71
2023/11/14 10:14:12;;;;;;;5.70;0.60;;;12.50;1.00;;;;;;5030036;28;20880;-71
2023/11/14 10:16:38;;;;;;;4.20;0.50;;;12.40;1.00;;;;;;5016029;28;20400;-71
2023/11/14 10:19:14;;;;;;;4.60;0.60;;;12.50;1.00;;;;;;5009652;28;20918;-71
2023/11/14 10:21:41;;;;;;;5.70;0.60;;;12.60;1.00;;;;;;5010037;28;20459;-71
2023/11/14 10:24:17;;;;;;;4.10;0.50;;;12.50;1.00;;;;;;5010266;28;20393;-71
2023/11/14 10:26:51;;;;;;;5.30;0.60;;;12.40;1.00;;;;;;5010652;28;20393;-71
2023/11/14 10:29:20;;;;;;;5.73;0.67;;;12.50;1.00;;;;;;5010197;28;20399;-71
2023/11/14 10:31:47;;;;;;;8.30;1.00;;;12.60;1.00;;;;;;5009537;28;20886;-71
2023/11/14 10:34:29;;;;;;;4.00;0.40;;;12.60;1.00;;;;;;5010296;28;20447;-71
2023/11/14 10:36:56;;;;;;;4.75;0.57;;;12.70;1.00;;;;;;5009534;28;20471;-71
2023/11/14 10:39:23;;;;;;;4.60;1.00;;;12.80;1.00;;;;;;5009781;28;20392;-71
2023/11/14 10:41:50;;;;;;;3.97;0.45;;;12.80;1.00;;;;;;5009781;28;20392;-71
2023/11/14 10:44:16;;;;;;;4.80;0.60;;;12.90;1.00;;;;;;5009760;28;20867;-71
2023/11/14 10:46:55;;;;;;;4.10;0.60;;;12.80;1.00;;;;;;5010059;28;20381;-71
2023/11/14 10:49:23;;;;;;;5.95;0.60;;;12.90;1.00;;;;;;5010396;28;20892;-71
2023/11/14 10:51:50;;;;;;;4.20;0.50;;;13.10;1.00;;;;;;5010415;28;20879;-71
2023/11/14 10:54:16;;;;;;;5.50;0.70;;;13.30;1.00;;;;;;5010179;28;20396;-71
2023/11/14 10:56:43;;;;;;;5.70;0.50;;;13.30;1.00;;;;;;5010078;28;20743;-71
2023/11/14 10:59:10;;;;;;;5.10;0.70;;;13.50;1.00;;;;;;5009453;28;20400;-71
2023/11/14 11:01:36;;;;;;;3.97;0.45;;;13.50;1.00;;;;;;5011395;28;20823;-70
2023/11/14 11:04:13;;;;;;;9.20;0.80;;;13.30;1.00;;;;;;5013540;28;20471;-71
2023/11/14 11:06:39;;;;;;;4.10;0.50;;;13.10;1.00;;;;;;5013612;28;20413;-71
2023/11/14 11:09:05;;;;;;;4.68;0.80;;;12.90;1.00;;;;;;5013448;28;20480;-71
2023/11/14 11:11:44;;;;;;;4.50;0.60;;;13.10;1.00;;;;;;5012892;28;20519;-71
2023/11/14 11:14:14;;;;;;;6.70;0.70;;;13.10;1.00;;;;;;5013790;28;20404;-71
2023/11/14 11:16:43;;;;;;;3.90;0.40;;;13.00;1.00;;;;;;5026494;28;20402;-71
2023/11/14 11:19:21;;;;;;;5.63;0.60;;;13.00;1.00;;;;;;5032669;28;20460;-71
2023/11/14 11:21:57;;;;;;;4.10;0.50;;;13.00;1.00;;;;;;5032669;28;20432;-71
2023/11/14 11:24:25;;;;;;;4.45;0.70;;;13.00;1.00;;;;;;5032848;28;20456;-71
2023/11/14 11:27:09;;;;;;;4.10;0.52;;;13.10;1.00;;;;;;5032860;28;20419;-71
2023/11/14 11:30:00;;;;;;;4.40;0.70;;;13.20;1.00;;;;;;5032571;28;20445;-71
2023/11/14 11:32:31;;;;;;;6.53;1.20;;;13.40;1.00;;;;;;5032818;28;20486;-71
2023/11/14 11:35:18;;;;;;;4.40;0.70;;;13.40;1.00;;;;;;5032396;28;20988;-71
2023/11/14 11:37:56;;;;;;;6.25;0.70;;;13.20;1.00;;;;;;5033563;28;20391;-71
2023/11/14 11:40:27;;;;;;;8.00;1.00;;;13.20;1.00;;;;;;5032421;28;20407;-71
2023/11/14 11:42:57;;;;;;;5.25;0.80;;;13.10;1.00;;;;;;5032503;28;20434;-71
2023/11/14 11:45:29;;;;;;;5.00;1.00;;;13.00;1.00;;;;;;5031971;28;20395;-71
2023/11/14 11:47:59;;;;;;;4.47;0.47;;;13.20;1.00;;;;;;5032729;28;20459;-71
2023/11/14 11:50:32;;;;;;;4.20;0.65;;;13.30;1.00;;;;;;5032208;28;20430;-71
2023/11/14 11:53:07;;;;;;;5.10;0.90;;;13.60;1.00;;;;;;5032386;28;20468;-71
2023/11/14 11:55:36;;;;;;;6.72;0.80;;;13.70;1.00;;;;;;5032359;28;20918;-70
2023/11/14 11:58:02;;;;;;;4.30;0.60;;;13.80;1.00;;;;;;5032438;28;20391;-70
2023/11/14 12:00:29;;;;;;;4.68;0.60;;;13.90;1.00;;;;;;5031925;28;20400;-70
2023/11/14 12:02:57;;;;;;;5.68;0.68;;;14.00;1.00;;;;;;5032063;28;20453;-70
2023/11/14 12:05:23;;;;;;;5.90;0.70;;;14.00;1.00;;;;;;5032497;28;20441;-70
2023/11/14 12:07:49;;;;;;;4.70;0.60;;;13.80;1.00;;;;;;5031018;28;20395;-71
2023/11/14 12:10:17;;;;;;;5.60;0.80;;;13.80;1.00;;;;;;5032091;28;20415;-70
2023/11/14 12:12:44;;;;;;;4.80;0.50;;;13.80;1.00;;;;;;5031604;28;20414;-71
2023/11/14 12:15:16;;;;;;;8.98;0.75;;;13.90;1.00;;;;;;5029580;28;20410;-70
2023/11/14 12:18:02;;;;;;;6.60;1.08;;;13.70;1.00;;;;;;5029306;28;20777;-70
2023/11/14 12:20:28;;;;;;;6.38;0.90;;;13.80;1.00;;;;;;5014272;28;20550;-71
2023/11/14 12:22:54;;;;;;;3.90;0.50;;;13.90;1.00;;;;;;5015882;28;20470;-70
2023/11/14 12:25:21;;;;;;;3.90;0.40;;;13.70;1.00;;;;;;5031568;28;20454;-70
2023/11/14 12:27:48;;;;;;;5.60;0.57;;;13.50;1.00;;;;;;5031133;28;20379;-71
2023/11/14 12:30:16;;;;;;;4.40;0.65;;;13.50;1.00;;;;;;5032316;28;20415;-71
2023/11/14 12:32:41;;;;;;;5.70;0.60;;;13.40;1.00;;;;;;5031987;28;20402;-70
2023/11/14 12:35:09;;;;;;;4.10;0.43;;;13.50;1.00;;;;;;5026297;28;20483;-70
2023/11/14 12:37:35;;;;;;;4.38;0.60;;;13.40;1.00;;;;;;5011623;28;20403;-70
2023/11/14 12:40:10;;;;;;;5.90;0.60;;;13.40;1.00;;;;;;5012057;28;20741;-70
2023/11/14 12:42:39;;;;;;;4.20;0.40;;;13.40;1.00;;;;;;5011538;28;20411;-70
2023/11/14 12:45:08;;;;;;;4.47;0.60;;;13.40;1.00;;;;;;5011638;28;20525;-70
2023/11/14 12:47:39;;;;;;;4.20;0.70;;;13.30;1.00;;;;;;5012255;28;20380;-70
2023/11/14 12:50:09;;;;;;;4.20;0.60;;;13.40;1.00;;;;;;5011669;28;20977;-70
2023/11/14 12:52:37;;;;;;;4.60;0.50;;;13.30;1.00;;;;;;5016088;28;20414;-70
2023/11/14 12:55:04;;;;;;;8.75;0.68;;;13.20;1.00;;;;;;5022566;28;20393;-70